Big Eddie — WDG2850 — position and weather

sailwx.info

Track history (hours):
 
Tides and Currents Weather Stations Pressure Air Temp Water Temp Dewpoint Dewpoint Depression Visibility Wind Speed Wind Dir Waves Ship Positions

Big Eddie

Owner: Crosby Marine Transportaion LLC, Golden Meadow, LA. More information available from US FCC via Universal Licensing System and Coast Guard Vessel Documentation Center.

Last reported at 2018-May-13 08:02 UTC. Time now 2018-May-21 11:15 UTC.
Position N 32°46' W 091°09'.
Warning: this ship's position is 8 days out of date.

Length 22 m; draft 4 m.

Type: Towing. MMSI: 367519920.

Date/timePositionNaut miles runAvg speedWind from/ knotsBaromVisibWave heightAir tempDewpointWater temp
2018-May-13 08:02N 32°46' W 091°09'0 3.8
2018-May-13 07:58N 32°46' W 091°09'2 3.6
2018-May-13 07:28N 32°44' W 091°08'3 4.1
2018-May-13 06:41N 32°44' W 091°04'5 2.7
2018-May-13 04:47N 32°40' W 091°08'2 3.3
2018-May-13 04:12N 32°38' W 091°09'1 3.9
2018-May-13 03:59N 32°37' W 091°09'2 3.6
2018-May-13 03:30N 32°36' W 091°08'2 3.1
2018-May-13 03:00N 32°35' W 091°07'2 3.3
2018-May-13 02:30N 32°33' W 091°06'2 3.5
2018-May-13 02:00N 32°31' W 091°06'2 3.6
2018-May-13 01:30N 32°30' W 091°07'2 3.5
2018-May-13 01:00N 32°28' W 091°06'2 4.0
2018-May-13 00:30N 32°27' W 091°04'2 4.0
2018-May-13 00:00N 32°26' W 091°02'2 3.8
2018-May-12 23:30N 32°25' W 091°00'2 3.6
2018-May-12 23:00N 32°23' W 090°60'2 3.2
2018-May-12 22:30N 32°22' W 091°00'2 3.7
2018-May-12 22:00N 32°21' W 090°58'2 3.9
2018-May-12 21:30N 32°21' W 090°56'2 3.9
2018-May-12 21:00N 32°20' W 090°54'1 2.7
2018-May-12 20:30N 32°18' W 090°55'0 0.0
2018-May-12 20:00N 32°18' W 090°55'0 0.0
2018-May-12 19:30N 32°18' W 090°55'0 0.0
2018-May-12 19:00N 32°18' W 090°55'0 0.9
2018-May-12 18:30N 32°18' W 090°55'2 3.3
2018-May-12 18:00N 32°17' W 090°57'2 3.6
2018-May-12 17:30N 32°16' W 090°58'2 3.9
2018-May-12 17:00N 32°14' W 090°59'2 4.1
2018-May-12 16:30N 32°12' W 090°59'2 3.5
2018-May-12 16:00N 32°10' W 090°60'2 3.5
2018-May-12 15:18N 32°08' W 091°01'1 4.0
2018-May-12 15:00N 32°07' W 091°02'2 3.5
2018-May-12 14:30N 32°08' W 091°04'1 2.9
2018-May-12 14:00N 32°08' W 091°06'1 2.8
2018-May-12 13:30N 32°07' W 091°06'4 4.0
2018-May-12 12:35N 32°04' W 091°04'5 3.6
2018-May-12 11:18N 31°59' W 091°06'1 3.3
2018-May-12 11:00N 31°59' W 091°07'2 3.5
2018-May-12 10:24N 31°59' W 091°09'9 3.3
2018-May-12 07:40N 31°52' W 091°15'1 3.1
2018-May-12 07:29N 31°51' W 091°16'  
2018-May-09 12:48N 29°60' W 090°27'1 3.3
2018-May-09 12:29N 29°60' W 090°25'3 4.1
2018-May-09 11:51N 29°57' W 090°24'1 4.3
2018-May-09 11:30N 29°56' W 090°22'19 0.7
2018-May-08 08:13N 29°40' W 090°13'1 4.3
2018-May-08 08:00N 29°39' W 090°14'2 4.2
2018-May-08 07:30N 29°39' W 090°16'2 4.3
2018-May-08 07:00N 29°39' W 090°19'2 3.9
2018-May-08 06:30N 29°38' W 090°21'2 4.5
2018-May-08 05:58N 29°36' W 090°22'2 4.6
2018-May-08 05:28N 29°34' W 090°23'2 4.0
2018-May-08 05:00N 29°33' W 090°25'2 4.6
2018-May-08 04:30N 29°33' W 090°28'2 4.7
2018-May-08 04:00N 29°34' W 090°31'3 4.6
2018-May-08 03:27N 29°34' W 090°34'2 4.6
2018-May-08 03:00N 29°35' W 090°36'2 4.3
2018-May-08 02:30N 29°35' W 090°38'2 4.7
2018-May-08 02:00N 29°36' W 090°41'2 3.3
2018-May-08 01:30N 29°36' W 090°43'2 4.6
2018-May-08 01:00N 29°34' W 090°43'2 3.0
2018-May-08 00:30N 29°33' W 090°45'1 1.8
2018-May-07 23:59N 29°32' W 090°46'3 5.7
2018-May-07 23:30N 29°32' W 090°49'3 5.9
2018-May-07 22:58N 29°32' W 090°52'3 6.1
2018-May-07 22:25N 29°34' W 090°56'58 2.2
2018-May-06 20:24N 29°50' W 092°01'2 5.1
2018-May-06 20:00N 29°49' W 092°03'3 5.3
2018-May-06 19:30N 29°48' W 092°06'3 5.3
2018-May-06 19:00N 29°47' W 092°09'2 4.6
2018-May-06 18:30N 29°47' W 092°11'1 2.3
2018-May-06 18:00N 29°47' W 092°12'1 2.0
2018-May-06 17:30N 29°48' W 092°14'1 1.2
2018-May-06 17:00N 29°48' W 092°14'1 1.0
2018-May-06 16:30N 29°48' W 092°15'1 2.3
2018-May-06 16:00N 29°48' W 092°16'2 4.4
2018-May-06 15:30N 29°50' W 092°18'40 3.0
2018-May-06 02:11N 29°56' W 093°04'1 4.4
2018-May-06 01:58N 29°56' W 093°05'2 4.3
2018-May-06 01:30N 29°56' W 093°07'2 4.2
2018-May-06 01:00N 29°56' W 093°10'2 4.5
2018-May-06 00:30N 29°58' W 093°11'2 4.5
2018-May-06 00:00N 29°60' W 093°13'2 4.1
2018-May-05 23:30N 30°01' W 093°14'2 4.0
2018-May-05 23:00N 30°03' W 093°16'2 4.5
2018-May-05 22:30N 30°05' W 093°17'1 1.8
2018-May-05 21:59N 30°05' W 093°18'1 2.6
2018-May-05 21:30N 30°06' W 093°19'2 4.9
2018-May-05 21:00N 30°04' W 093°21'2 4.9
2018-May-05 20:30N 30°04' W 093°24'3 5.4
2018-May-05 19:59N 30°04' W 093°27'3 5.3
2018-May-05 19:30N 30°04' W 093°30'3 5.7
2018-May-05 18:59N 30°04' W 093°33'3 5.4
2018-May-05 18:30N 30°04' W 093°37'3 5.0
2018-May-05 17:55N 30°04' W 093°40'2 4.7
2018-May-05 17:29N 30°03' W 093°42'2 3.1
2018-May-05 17:00N 30°03' W 093°44'3 5.3
2018-May-05 16:30N 30°01' W 093°46'3 5.9
2018-May-05 16:00N 29°59' W 093°49'3 5.5
2018-May-05 15:30N 29°58' W 093°51'3 6.5
2018-May-05 15:00N 29°55' W 093°53'3 6.4
2018-May-05 14:30N 29°52' W 093°56'3 5.6
2018-May-05 14:00N 29°50' W 093°57'2 4.0
2018-May-05 13:30N 29°49' W 093°59'2 4.2
2018-May-05 13:00N 29°47' W 094°01'2 4.1
2018-May-05 12:30N 29°46' W 094°03'2 4.1
2018-May-05 12:00N 29°45' W 094°05'2 4.2
2018-May-05 11:30N 29°44' W 094°06'2 4.1
2018-May-05 11:00N 29°42' W 094°08'2 3.2
2018-May-05 10:30N 29°41' W 094°10'2 3.8
2018-May-05 10:00N 29°41' W 094°12'2 4.3
2018-May-05 09:28N 29°40' W 094°14'9 3.8
2018-May-05 07:11N 29°36' W 094°23'1 3.5
2018-May-05 06:53N 29°36' W 094°24'2 3.6
2018-May-05 06:14N 29°34' W 094°26'13 4.5
2018-May-05 03:17N 29°28' W 094°40'4 4.9
2018-May-05 02:33N 29°26' W 094°43'0 4.7
2018-May-05 02:30N 29°26' W 094°43'3 4.7
2018-May-05 01:52N 29°24' W 094°46'2 4.7
2018-May-05 01:28N 29°22' W 094°47'3 5.8
2018-May-05 01:00N 29°24' W 094°49'4 8.0
2018-May-05 00:30N 29°28' W 094°51'3 6.7
2018-May-05 00:00N 29°31' W 094°53'3 5.7
2018-May-04 23:30N 29°33' W 094°55'2 4.7
2018-May-04 23:00N 29°35' W 094°56'3 5.6
2018-May-04 22:30N 29°38' W 094°58'3 5.6
2018-May-04 22:00N 29°40' W 094°59'3 5.6
2018-May-04 21:30N 29°42' W 095°01'2 4.8
2018-May-04 21:00N 29°44' W 095°03'3 3.8
2018-May-04 20:10N 29°45' W 095°06'1 4.6
2018-May-04 20:00N 29°44' W 095°07'3 0.3
2018-May-04 12:35N 29°45' W 095°10'0 1.8
2018-May-04 12:23N 29°45' W 095°10'0 0.0
2018-May-04 10:00N 29°45' W 095°10'0 0.0
2018-May-04 09:24N 29°45' W 095°10'0 0.0
2018-May-04 08:58N 29°45' W 095°10'0 0.0
2018-May-04 08:30N 29°45' W 095°10'0 0.0
2018-May-04 08:00N 29°45' W 095°10'0 0.0
2018-May-04 07:27N 29°45' W 095°10'0 0.0
2018-May-04 07:00N 29°45' W 095°10'0 0.0
2018-May-03 12:46N 29°45' W 095°11'0 0.4
2018-May-03 12:22N 29°45' W 095°11'0 0.0
2018-May-03 11:58N 29°45' W 095°11'  
Track history (hours):
 
Tides and Currents Weather Stations Pressure Air Temp Water Temp Dewpoint Dewpoint Depression Visibility Wind Speed Wind Dir Waves Ship Positions

Big Eddie

Owner: Crosby Marine Transportaion LLC, Golden Meadow, LA. More information available from US FCC via Universal Licensing System and Coast Guard Vessel Documentation Center.

Last reported at 2018-May-13 08:02 UTC. Time now 2018-May-21 11:15 UTC.
Position N 32°46' W 091°09'.
Warning: this ship's position is 8 days out of date.

Length 22 m; draft 4 m.

Type: Towing. MMSI: 367519920.

Date/timePositionNaut miles runAvg speedWind from/ knotsBaromVisibWave heightAir tempDewpointWater temp
2018-May-13 08:02N 32°46' W 091°09'0 3.8
2018-May-13 07:58N 32°46' W 091°09'2 3.6
2018-May-13 07:28N 32°44' W 091°08'3 4.1
2018-May-13 06:41N 32°44' W 091°04'5 2.7
2018-May-13 04:47N 32°40' W 091°08'2 3.3
2018-May-13 04:12N 32°38' W 091°09'1 3.9
2018-May-13 03:59N 32°37' W 091°09'2 3.6
2018-May-13 03:30N 32°36' W 091°08'2 3.1
2018-May-13 03:00N 32°35' W 091°07'2 3.3
2018-May-13 02:30N 32°33' W 091°06'2 3.5
2018-May-13 02:00N 32°31' W 091°06'2 3.6
2018-May-13 01:30N 32°30' W 091°07'2 3.5
2018-May-13 01:00N 32°28' W 091°06'2 4.0
2018-May-13 00:30N 32°27' W 091°04'2 4.0
2018-May-13 00:00N 32°26' W 091°02'2 3.8
2018-May-12 23:30N 32°25' W 091°00'2 3.6
2018-May-12 23:00N 32°23' W 090°60'2 3.2
2018-May-12 22:30N 32°22' W 091°00'2 3.7
2018-May-12 22:00N 32°21' W 090°58'2 3.9
2018-May-12 21:30N 32°21' W 090°56'2 3.9
2018-May-12 21:00N 32°20' W 090°54'1 2.7
2018-May-12 20:30N 32°18' W 090°55'0 0.0
2018-May-12 20:00N 32°18' W 090°55'0 0.0
2018-May-12 19:30N 32°18' W 090°55'0 0.0
2018-May-12 19:00N 32°18' W 090°55'0 0.9
2018-May-12 18:30N 32°18' W 090°55'2 3.3
2018-May-12 18:00N 32°17' W 090°57'2 3.6
2018-May-12 17:30N 32°16' W 090°58'2 3.9
2018-May-12 17:00N 32°14' W 090°59'2 4.1
2018-May-12 16:30N 32°12' W 090°59'2 3.5
2018-May-12 16:00N 32°10' W 090°60'2 3.5
2018-May-12 15:18N 32°08' W 091°01'1 4.0
2018-May-12 15:00N 32°07' W 091°02'2 3.5
2018-May-12 14:30N 32°08' W 091°04'1 2.9
2018-May-12 14:00N 32°08' W 091°06'1 2.8
2018-May-12 13:30N 32°07' W 091°06'4 4.0
2018-May-12 12:35N 32°04' W 091°04'5 3.6
2018-May-12 11:18N 31°59' W 091°06'1 3.3
2018-May-12 11:00N 31°59' W 091°07'2 3.5
2018-May-12 10:24N 31°59' W 091°09'9 3.3
2018-May-12 07:40N 31°52' W 091°15'1 3.1
2018-May-12 07:29N 31°51' W 091°16'  
2018-May-09 12:48N 29°60' W 090°27'1 3.3
2018-May-09 12:29N 29°60' W 090°25'3 4.1
2018-May-09 11:51N 29°57' W 090°24'1 4.3
2018-May-09 11:30N 29°56' W 090°22'19 0.7
2018-May-08 08:13N 29°40' W 090°13'1 4.3
2018-May-08 08:00N 29°39' W 090°14'2 4.2
2018-May-08 07:30N 29°39' W 090°16'2 4.3
2018-May-08 07:00N 29°39' W 090°19'2 3.9
2018-May-08 06:30N 29°38' W 090°21'2 4.5
2018-May-08 05:58N 29°36' W 090°22'2 4.6
2018-May-08 05:28N 29°34' W 090°23'2 4.0
2018-May-08 05:00N 29°33' W 090°25'2 4.6
2018-May-08 04:30N 29°33' W 090°28'2 4.7
2018-May-08 04:00N 29°34' W 090°31'3 4.6
2018-May-08 03:27N 29°34' W 090°34'2 4.6
2018-May-08 03:00N 29°35' W 090°36'2 4.3
2018-May-08 02:30N 29°35' W 090°38'2 4.7
2018-May-08 02:00N 29°36' W 090°41'2 3.3
2018-May-08 01:30N 29°36' W 090°43'2 4.6
2018-May-08 01:00N 29°34' W 090°43'2 3.0
2018-May-08 00:30N 29°33' W 090°45'1 1.8
2018-May-07 23:59N 29°32' W 090°46'3 5.7
2018-May-07 23:30N 29°32' W 090°49'3 5.9
2018-May-07 22:58N 29°32' W 090°52'3 6.1
2018-May-07 22:25N 29°34' W 090°56'58 2.2
2018-May-06 20:24N 29°50' W 092°01'2 5.1
2018-May-06 20:00N 29°49' W 092°03'3 5.3
2018-May-06 19:30N 29°48' W 092°06'3 5.3
2018-May-06 19:00N 29°47' W 092°09'2 4.6
2018-May-06 18:30N 29°47' W 092°11'1 2.3
2018-May-06 18:00N 29°47' W 092°12'1 2.0
2018-May-06 17:30N 29°48' W 092°14'1 1.2
2018-May-06 17:00N 29°48' W 092°14'1 1.0
2018-May-06 16:30N 29°48' W 092°15'1 2.3
2018-May-06 16:00N 29°48' W 092°16'2 4.4
2018-May-06 15:30N 29°50' W 092°18'40 3.0
2018-May-06 02:11N 29°56' W 093°04'1 4.4
2018-May-06 01:58N 29°56' W 093°05'2 4.3
2018-May-06 01:30N 29°56' W 093°07'2 4.2
2018-May-06 01:00N 29°56' W 093°10'2 4.5
2018-May-06 00:30N 29°58' W 093°11'2 4.5
2018-May-06 00:00N 29°60' W 093°13'2 4.1
2018-May-05 23:30N 30°01' W 093°14'2 4.0
2018-May-05 23:00N 30°03' W 093°16'2 4.5
2018-May-05 22:30N 30°05' W 093°17'1 1.8
2018-May-05 21:59N 30°05' W 093°18'1 2.6
2018-May-05 21:30N 30°06' W 093°19'2 4.9
2018-May-05 21:00N 30°04' W 093°21'2 4.9
2018-May-05 20:30N 30°04' W 093°24'3 5.4
2018-May-05 19:59N 30°04' W 093°27'3 5.3
2018-May-05 19:30N 30°04' W 093°30'3 5.7
2018-May-05 18:59N 30°04' W 093°33'3 5.4
2018-May-05 18:30N 30°04' W 093°37'3 5.0
2018-May-05 17:55N 30°04' W 093°40'2 4.7
2018-May-05 17:29N 30°03' W 093°42'2 3.1
2018-May-05 17:00N 30°03' W 093°44'3 5.3
2018-May-05 16:30N 30°01' W 093°46'3 5.9
2018-May-05 16:00N 29°59' W 093°49'3 5.5
2018-May-05 15:30N 29°58' W 093°51'3 6.5
2018-May-05 15:00N 29°55' W 093°53'3 6.4
2018-May-05 14:30N 29°52' W 093°56'3 5.6
2018-May-05 14:00N 29°50' W 093°57'2 4.0
2018-May-05 13:30N 29°49' W 093°59'2 4.2
2018-May-05 13:00N 29°47' W 094°01'2 4.1
2018-May-05 12:30N 29°46' W 094°03'2 4.1
2018-May-05 12:00N 29°45' W 094°05'2 4.2
2018-May-05 11:30N 29°44' W 094°06'2 4.1
2018-May-05 11:00N 29°42' W 094°08'2 3.2
2018-May-05 10:30N 29°41' W 094°10'2 3.8
2018-May-05 10:00N 29°41' W 094°12'2 4.3
2018-May-05 09:28N 29°40' W 094°14'9 3.8
2018-May-05 07:11N 29°36' W 094°23'1 3.5
2018-May-05 06:53N 29°36' W 094°24'2 3.6
2018-May-05 06:14N 29°34' W 094°26'13 4.5
2018-May-05 03:17N 29°28' W 094°40'4 4.9
2018-May-05 02:33N 29°26' W 094°43'0 4.7
2018-May-05 02:30N 29°26' W 094°43'3 4.7
2018-May-05 01:52N 29°24' W 094°46'2 4.7
2018-May-05 01:28N 29°22' W 094°47'3 5.8
2018-May-05 01:00N 29°24' W 094°49'4 8.0
2018-May-05 00:30N 29°28' W 094°51'3 6.7
2018-May-05 00:00N 29°31' W 094°53'3 5.7
2018-May-04 23:30N 29°33' W 094°55'2 4.7
2018-May-04 23:00N 29°35' W 094°56'3 5.6
2018-May-04 22:30N 29°38' W 094°58'3 5.6
2018-May-04 22:00N 29°40' W 094°59'3 5.6
2018-May-04 21:30N 29°42' W 095°01'2 4.8
2018-May-04 21:00N 29°44' W 095°03'3 3.8
2018-May-04 20:10N 29°45' W 095°06'1 4.6
2018-May-04 20:00N 29°44' W 095°07'3 0.3
2018-May-04 12:35N 29°45' W 095°10'0 1.8
2018-May-04 12:23N 29°45' W 095°10'0 0.0
2018-May-04 10:00N 29°45' W 095°10'0 0.0
2018-May-04 09:24N 29°45' W 095°10'0 0.0
2018-May-04 08:58N 29°45' W 095°10'0 0.0
2018-May-04 08:30N 29°45' W 095°10'0 0.0
2018-May-04 08:00N 29°45' W 095°10'0 0.0
2018-May-04 07:27N 29°45' W 095°10'0 0.0
2018-May-04 07:00N 29°45' W 095°10'0 0.0
2018-May-03 12:46N 29°45' W 095°11'0 0.4
2018-May-03 12:22N 29°45' W 095°11'0 0.0
2018-May-03 11:58N 29°45' W 095°11'  

Dump ship's entire track history